createdAt,value
2018-12-21T00:04:26.555Z,1004.24
2018-12-21T00:09:21.913Z,1004.15
2018-12-21T00:14:17.448Z,1004.14
2018-12-21T00:19:13.228Z,1004.08
2018-12-21T00:24:09.993Z,1003.82
2018-12-21T00:29:05.592Z,1003.89
2018-12-21T00:34:01.131Z,1003.77
2018-12-21T00:38:56.969Z,1003.86
2018-12-21T00:43:52.709Z,1003.86
2018-12-21T00:48:48.504Z,1003.89
2018-12-21T00:53:44.231Z,1003.79
2018-12-21T00:58:40.731Z,1003.67
2018-12-21T01:03:35.995Z,1003.58
2018-12-21T01:08:32.046Z,1003.49
2018-12-21T01:13:28.372Z,1003.49
2018-12-21T01:23:24.573Z,1003.54
2018-12-21T01:28:20.294Z,1003.56
2018-12-21T01:33:16.645Z,1003.55
2018-12-21T01:38:12.597Z,1003.48
2018-12-21T01:43:09.633Z,1003.41
2018-12-21T01:48:05.311Z,1003.32
2018-12-21T01:53:01.728Z,1003.30
2018-12-21T01:57:57.410Z,1003.25
2018-12-21T02:02:53.067Z,1003.11
2018-12-21T02:07:48.770Z,1003.09
2018-12-21T02:12:44.625Z,1002.97
2018-12-21T02:17:40.564Z,1002.86
2018-12-21T02:22:36.942Z,1002.71
2018-12-21T02:27:33.921Z,1002.72
2018-12-21T02:32:29.399Z,1002.57
2018-12-21T02:37:25.196Z,1002.63
2018-12-21T02:42:20.844Z,1002.52
2018-12-21T02:47:16.473Z,1002.66
2018-12-21T02:52:12.230Z,1002.55
2018-12-21T02:57:07.836Z,1002.58
2018-12-21T03:02:04.623Z,1002.49
2018-12-21T03:07:00.073Z,1002.39
2018-12-21T03:11:55.878Z,1002.26
2018-12-21T03:16:51.703Z,1002.27
2018-12-21T03:21:48.015Z,1002.14
2018-12-21T03:26:44.531Z,1001.87
2018-12-21T03:31:40.220Z,1001.82
2018-12-21T03:36:35.904Z,1001.67
2018-12-21T03:41:31.584Z,1001.59
2018-12-21T03:46:27.639Z,1001.37
2018-12-21T03:51:24.183Z,1001.15
2018-12-21T03:56:19.446Z,1001.17
2018-12-21T04:01:15.181Z,1000.97
2018-12-21T04:06:11.407Z,1000.86
2018-12-21T04:11:06.775Z,1000.84
2018-12-21T04:16:02.569Z,1000.73
2018-12-21T04:20:59.675Z,1000.67
2018-12-21T04:25:55.210Z,1000.53
2018-12-21T04:30:51.935Z,1000.44
2018-12-21T04:35:47.407Z,1000.38
2018-12-21T04:40:43.119Z,1000.32
2018-12-21T04:45:38.987Z,1000.21
2018-12-21T04:50:35.293Z,1000.15
2018-12-21T04:55:30.758Z,999.97
2018-12-21T05:00:26.413Z,999.99
2018-12-21T05:05:23.334Z,999.78
2018-12-21T05:10:18.901Z,999.70
2018-12-21T05:15:14.396Z,999.59
2018-12-21T05:20:10.109Z,999.47
2018-12-21T05:25:05.844Z,999.41
2018-12-21T05:30:01.617Z,999.21
2018-12-21T05:34:58.348Z,999.19
2018-12-21T05:39:53.950Z,999.04
2018-12-21T05:44:49.835Z,998.88
2018-12-21T05:49:46.516Z,998.76
2018-12-21T05:54:42.882Z,998.57
2018-12-21T05:59:38.697Z,998.50
2018-12-21T06:04:34.686Z,998.44
2018-12-21T06:09:31.556Z,998.49
2018-12-21T06:14:27.909Z,998.35
2018-12-21T06:19:23.955Z,998.15
2018-12-21T06:24:19.587Z,997.92
2018-12-21T06:29:15.515Z,997.74
2018-12-21T06:34:12.611Z,997.66
2018-12-21T06:39:09.140Z,997.53
2018-12-21T06:44:05.782Z,997.49
2018-12-21T06:49:02.081Z,997.47
2018-12-21T06:53:58.622Z,997.33
2018-12-21T06:58:54.547Z,997.21
2018-12-21T07:03:50.022Z,997.16
2018-12-21T07:08:46.638Z,997.13
2018-12-21T07:13:42.188Z,996.88
2018-12-21T07:18:38.742Z,996.72
2018-12-21T07:23:34.367Z,996.59
2018-12-21T07:28:30.977Z,996.49
2018-12-21T07:33:28.057Z,996.35
2018-12-21T07:38:23.265Z,996.00
2018-12-21T07:43:20.413Z,995.87
2018-12-21T07:48:16.647Z,995.71
2018-12-21T07:53:13.448Z,995.60
2018-12-21T07:58:08.998Z,995.51
2018-12-21T08:03:04.778Z,995.40
2018-12-21T08:08:00.213Z,995.21
2018-12-21T08:12:56.315Z,995.04
2018-12-21T08:17:52.103Z,995.02
2018-12-21T08:22:47.862Z,994.89
2018-12-21T08:27:44.600Z,994.67
2018-12-21T08:32:41.102Z,994.55
2018-12-21T08:37:36.805Z,994.54
2018-12-21T08:42:32.662Z,994.35
2018-12-21T08:47:28.972Z,994.49
2018-12-21T08:52:26.023Z,994.31
2018-12-21T08:57:21.778Z,994.30
2018-12-21T09:02:21.080Z,994.18
2018-12-21T09:07:16.291Z,993.94
2018-12-21T09:12:12.060Z,993.83
2018-12-21T09:17:07.761Z,993.69
2018-12-21T09:22:04.209Z,993.62
2018-12-21T09:27:00.849Z,993.38
2018-12-21T09:32:04.987Z,993.37
2018-12-21T09:36:57.025Z,993.23
2018-12-21T09:41:52.774Z,993.17
2018-12-21T09:46:48.385Z,993.09
2018-12-21T09:51:45.417Z,992.81
2018-12-21T09:56:41.124Z,992.65
2018-12-21T10:01:37.070Z,992.42
2018-12-21T10:06:32.660Z,992.32
2018-12-21T10:11:28.681Z,992.26
2018-12-21T10:16:24.672Z,992.07
2018-12-21T10:21:20.959Z,992.00
2018-12-21T10:26:17.773Z,991.90
2018-12-21T10:31:13.300Z,991.74
2018-12-21T10:36:08.897Z,991.76
2018-12-21T10:41:04.373Z,991.62
2018-12-21T10:46:00.224Z,991.46
2018-12-21T10:50:55.993Z,991.31
2018-12-21T10:55:51.632Z,991.40
2018-12-21T11:00:47.626Z,991.10
2018-12-21T11:05:43.378Z,991.26
2018-12-21T11:10:39.174Z,991.07
2018-12-21T11:15:35.061Z,991.10
2018-12-21T11:20:31.020Z,991.04
2018-12-21T11:25:26.909Z,990.94
2018-12-21T11:30:22.821Z,990.84
2018-12-21T11:35:19.250Z,990.96
2018-12-21T11:40:14.800Z,990.75
2018-12-21T11:45:10.871Z,990.72
2018-12-21T11:50:06.982Z,990.79
2018-12-21T11:55:03.005Z,990.72
2018-12-21T11:59:58.692Z,990.66
2018-12-21T12:04:55.277Z,990.53
2018-12-21T12:09:51.141Z,990.53
2018-12-21T12:14:46.727Z,990.63
2018-12-21T12:19:42.717Z,990.52
2018-12-21T12:24:39.525Z,990.51
2018-12-21T12:29:35.019Z,990.51
2018-12-21T12:34:32.185Z,990.45
2018-12-21T12:39:29.414Z,990.44
2018-12-21T12:44:24.801Z,990.44
2018-12-21T12:49:21.153Z,990.49
2018-12-21T12:54:16.721Z,990.34
2018-12-21T12:59:13.591Z,990.34
2018-12-21T13:04:10.671Z,990.47
2018-12-21T13:09:06.384Z,990.56
2018-12-21T13:14:02.617Z,990.54
2018-12-21T13:18:59.584Z,990.50
2018-12-21T13:23:56.557Z,990.54
2018-12-21T13:28:52.068Z,990.48
2018-12-21T13:33:48.866Z,990.56
2018-12-21T13:38:44.751Z,990.67
2018-12-21T13:43:40.432Z,990.67
2018-12-21T13:48:36.199Z,990.79
2018-12-21T13:53:31.566Z,990.84
2018-12-21T13:58:27.832Z,990.81
2018-12-21T14:03:24.307Z,991.03
2018-12-21T14:08:20.001Z,991.07
2018-12-21T14:13:15.739Z,991.18
2018-12-21T14:18:11.607Z,991.34
2018-12-21T14:23:07.232Z,991.26
2018-12-21T14:28:03.136Z,991.41
2018-12-21T14:32:58.950Z,991.54
2018-12-21T14:37:54.709Z,991.79
2018-12-21T14:42:51.431Z,992.01
2018-12-21T14:47:47.084Z,991.92
2018-12-21T14:52:42.735Z,991.94
2018-12-21T14:57:39.463Z,992.12
2018-12-21T15:02:36.077Z,992.24
2018-12-21T15:07:31.535Z,992.19
2018-12-21T15:12:27.459Z,992.23
2018-12-21T15:17:23.234Z,992.30
2018-12-21T15:22:19.194Z,992.51
2018-12-21T15:27:14.957Z,992.49
2018-12-21T15:32:11.710Z,992.54
2018-12-21T15:37:07.691Z,992.69
2018-12-21T15:42:03.414Z,992.69
2018-12-21T15:47:08.802Z,992.75
2018-12-21T15:51:59.355Z,992.68
2018-12-21T15:56:55.254Z,992.84
2018-12-21T16:01:51.951Z,992.93
2018-12-21T16:06:48.683Z,993.01
2018-12-21T16:11:45.614Z,992.98
2018-12-21T16:16:41.048Z,993.00
2018-12-21T16:21:36.896Z,993.23
2018-12-21T16:26:33.994Z,993.23
2018-12-21T16:31:29.788Z,993.40
2018-12-21T16:36:26.266Z,993.41
2018-12-21T16:41:21.900Z,993.67
2018-12-21T16:46:17.714Z,993.65
2018-12-21T16:51:14.670Z,993.75
2018-12-21T16:56:12.595Z,993.71
2018-12-21T17:01:08.837Z,993.76
2018-12-21T17:06:05.242Z,993.90
2018-12-21T17:11:00.766Z,994.16
2018-12-21T17:15:57.409Z,994.24
2018-12-21T17:20:53.556Z,993.97
2018-12-21T17:25:49.413Z,994.45
2018-12-21T17:30:45.693Z,994.42
2018-12-21T17:35:41.128Z,994.43
2018-12-21T17:40:36.960Z,994.56
2018-12-21T17:45:32.746Z,994.68
2018-12-21T17:50:29.183Z,994.81
2018-12-21T17:55:25.628Z,994.79
2018-12-21T18:00:21.162Z,994.76
2018-12-21T18:05:17.488Z,994.80
2018-12-21T18:10:14.155Z,994.98
2018-12-21T18:15:09.796Z,995.01
2018-12-21T18:20:06.433Z,995.20
2018-12-21T18:25:02.979Z,995.23
2018-12-21T18:29:58.678Z,995.34
2018-12-21T18:34:55.524Z,995.33
2018-12-21T18:39:51.013Z,995.45
2018-12-21T18:44:46.811Z,995.62
2018-12-21T18:49:42.354Z,995.69
2018-12-21T18:54:38.489Z,995.73
2018-12-21T18:59:34.468Z,995.81
2018-12-21T19:04:30.977Z,995.76
2018-12-21T19:09:26.935Z,995.83
2018-12-21T19:14:23.638Z,996.05
2018-12-21T19:19:19.020Z,995.96
2018-12-21T19:24:15.235Z,996.16
2018-12-21T19:29:11.450Z,996.25
2018-12-21T19:34:08.146Z,996.25
2018-12-21T19:39:04.529Z,996.33
2018-12-21T19:44:00.382Z,996.32
2018-12-21T19:48:55.930Z,996.34
2018-12-21T19:53:51.706Z,996.36
2018-12-21T19:58:48.242Z,996.47
2018-12-21T20:03:43.592Z,996.41
2018-12-21T20:08:39.260Z,996.56
2018-12-21T20:13:35.241Z,996.49
2018-12-21T20:18:31.091Z,996.50
2018-12-21T20:23:27.056Z,996.56
2018-12-21T20:28:24.217Z,996.60
2018-12-21T20:33:19.866Z,996.70
2018-12-21T20:38:21.394Z,996.84
2018-12-21T20:43:14.906Z,996.91
2018-12-21T20:48:10.735Z,997.06
2018-12-21T20:53:07.676Z,997.12
2018-12-21T20:58:04.131Z,997.32
2018-12-21T21:02:59.721Z,997.33
2018-12-21T21:07:56.694Z,997.43
2018-12-21T21:12:52.368Z,997.55
2018-12-21T21:17:48.116Z,997.58
2018-12-21T21:22:43.664Z,997.80
2018-12-21T21:27:40.322Z,997.84
2018-12-21T21:32:35.868Z,997.95
2018-12-21T21:37:31.583Z,997.98
2018-12-21T21:42:27.451Z,998.08
2018-12-21T21:47:23.146Z,998.19
2018-12-21T21:52:19.999Z,998.21
2018-12-21T21:57:15.256Z,998.40
2018-12-21T22:02:10.942Z,998.41
2018-12-21T22:07:06.744Z,998.63
2018-12-21T22:12:04.079Z,998.54
2018-12-21T22:16:59.525Z,998.76
2018-12-21T22:21:55.718Z,998.69
2018-12-21T22:26:51.105Z,998.72
2018-12-21T22:31:47.153Z,998.81
2018-12-21T22:36:42.785Z,998.98
2018-12-21T22:41:38.578Z,999.00
2018-12-21T22:46:35.426Z,999.09
2018-12-21T22:51:30.926Z,999.13
2018-12-21T22:56:26.794Z,999.25
2018-12-21T23:01:22.492Z,999.23
2018-12-21T23:06:18.326Z,999.42
2018-12-21T23:11:14.317Z,999.38
2018-12-21T23:16:10.985Z,999.45
2018-12-21T23:21:07.731Z,999.48
2018-12-21T23:26:04.478Z,999.50
2018-12-21T23:31:00.010Z,999.49
2018-12-21T23:35:57.358Z,999.42
2018-12-21T23:40:53.963Z,999.47
2018-12-21T23:45:50.504Z,999.46
2018-12-21T23:50:46.427Z,999.51
2018-12-21T23:55:43.029Z,999.49
